sensor_id;sensor_type;location;lat;lon;timestamp;temperature;humidity
38514;DHT22;24282;48.400;10.808;2023-01-28T00:00:07;0.20;86.40
38514;DHT22;24282;48.400;10.808;2023-01-28T00:02:36;0.20;86.30
38514;DHT22;24282;48.400;10.808;2023-01-28T00:05:02;0.20;86.30
38514;DHT22;24282;48.400;10.808;2023-01-28T00:07:28;0.20;86.30
38514;DHT22;24282;48.400;10.808;2023-01-28T00:09:54;0.20;86.30
38514;DHT22;24282;48.400;10.808;2023-01-28T00:12:20;0.20;86.20
38514;DHT22;24282;48.400;10.808;2023-01-28T00:14:45;0.20;86.40
38514;DHT22;24282;48.400;10.808;2023-01-28T00:17:13;0.20;86.50
38514;DHT22;24282;48.400;10.808;2023-01-28T00:19:39;0.20;86.50
38514;DHT22;24282;48.400;10.808;2023-01-28T00:22:04;0.20;86.40
38514;DHT22;24282;48.400;10.808;2023-01-28T00:24:31;0.20;86.40
38514;DHT22;24282;48.400;10.808;2023-01-28T00:26:57;0.20;86.40
38514;DHT22;24282;48.400;10.808;2023-01-28T00:29:23;0.20;86.50
38514;DHT22;24282;48.400;10.808;2023-01-28T00:31:48;0.20;86.40
38514;DHT22;24282;48.400;10.808;2023-01-28T00:34:14;0.20;86.40
38514;DHT22;24282;48.400;10.808;2023-01-28T00:36:40;0.30;86.30
38514;DHT22;24282;48.400;10.808;2023-01-28T00:39:09;0.20;86.20
38514;DHT22;24282;48.400;10.808;2023-01-28T00:41:36;0.20;86.40
38514;DHT22;24282;48.400;10.808;2023-01-28T00:44:02;0.20;86.40
38514;DHT22;24282;48.400;10.808;2023-01-28T00:46:28;0.20;86.50
38514;DHT22;24282;48.400;10.808;2023-01-28T00:48:54;0.20;86.40
38514;DHT22;24282;48.400;10.808;2023-01-28T00:51:20;0.20;86.40
38514;DHT22;24282;48.400;10.808;2023-01-28T00:53:48;0.20;86.40
38514;DHT22;24282;48.400;10.808;2023-01-28T00:56:16;0.20;86.50
38514;DHT22;24282;48.400;10.808;2023-01-28T00:58:42;0.20;86.30
38514;DHT22;24282;48.400;10.808;2023-01-28T01:01:14;0.20;86.30
38514;DHT22;24282;48.400;10.808;2023-01-28T01:03:41;0.20;86.20
38514;DHT22;24282;48.400;10.808;2023-01-28T01:06:08;0.20;86.20
38514;DHT22;24282;48.400;10.808;2023-01-28T01:08:34;0.20;86.20
38514;DHT22;24282;48.400;10.808;2023-01-28T01:11:03;0.20;86.20
38514;DHT22;24282;48.400;10.808;2023-01-28T01:13:31;0.20;86.20
38514;DHT22;24282;48.400;10.808;2023-01-28T01:16:13;0.20;86.10
38514;DHT22;24282;48.400;10.808;2023-01-28T01:18:40;0.20;86.30
38514;DHT22;24282;48.400;10.808;2023-01-28T01:21:13;0.20;86.20
38514;DHT22;24282;48.400;10.808;2023-01-28T01:23:39;0.20;86.10
38514;DHT22;24282;48.400;10.808;2023-01-28T01:26:06;0.20;86.10
38514;DHT22;24282;48.400;10.808;2023-01-28T01:28:32;0.20;86.00
38514;DHT22;24282;48.400;10.808;2023-01-28T01:31:03;0.30;86.00
38514;DHT22;24282;48.400;10.808;2023-01-28T01:33:29;0.30;86.10
38514;DHT22;24282;48.400;10.808;2023-01-28T01:35:57;0.20;86.00
38514;DHT22;24282;48.400;10.808;2023-01-28T01:38:26;0.20;86.00
38514;DHT22;24282;48.400;10.808;2023-01-28T01:40:51;0.30;86.10
38514;DHT22;24282;48.400;10.808;2023-01-28T01:43:21;0.30;86.10
38514;DHT22;24282;48.400;10.808;2023-01-28T01:46:05;0.30;85.90
38514;DHT22;24282;48.400;10.808;2023-01-28T01:48:32;0.30;85.90
38514;DHT22;24282;48.400;10.808;2023-01-28T01:51:09;0.30;85.90
38514;DHT22;24282;48.400;10.808;2023-01-28T01:53:41;0.20;85.80
38514;DHT22;24282;48.400;10.808;2023-01-28T01:56:09;0.20;85.90
38514;DHT22;24282;48.400;10.808;2023-01-28T01:58:39;0.20;85.90
38514;DHT22;24282;48.400;10.808;2023-01-28T02:01:06;0.20;85.90
38514;DHT22;24282;48.400;10.808;2023-01-28T02:06:20;0.20;86.10
38514;DHT22;24282;48.400;10.808;2023-01-28T02:08:46;0.20;86.10
38514;DHT22;24282;48.400;10.808;2023-01-28T02:11:13;0.30;86.20
38514;DHT22;24282;48.400;10.808;2023-01-28T02:13:43;0.20;86.10
38514;DHT22;24282;48.400;10.808;2023-01-28T02:16:11;0.30;86.10
38514;DHT22;24282;48.400;10.808;2023-01-28T02:18:37;0.30;86.00
38514;DHT22;24282;48.400;10.808;2023-01-28T02:21:45;0.30;86.00
38514;DHT22;24282;48.400;10.808;2023-01-28T02:27:13;0.30;85.80
38514;DHT22;24282;48.400;10.808;2023-01-28T02:30:06;0.30;85.70
38514;DHT22;24282;48.400;10.808;2023-01-28T02:32:42;0.30;85.60
38514;DHT22;24282;48.400;10.808;2023-01-28T02:35:15;0.30;85.70
38514;DHT22;24282;48.400;10.808;2023-01-28T02:38:03;0.30;85.80
38514;DHT22;24282;48.400;10.808;2023-01-28T02:40:39;0.30;85.90
38514;DHT22;24282;48.400;10.808;2023-01-28T02:49:16;0.30;86.00
38514;DHT22;24282;48.400;10.808;2023-01-28T02:57:08;0.20;86.10
38514;DHT22;24282;48.400;10.808;2023-01-28T02:59:56;0.20;86.20
38514;DHT22;24282;48.400;10.808;2023-01-28T03:05:20;0.20;86.20
38514;DHT22;24282;48.400;10.808;2023-01-28T03:07:48;0.20;86.20
38514;DHT22;24282;48.400;10.808;2023-01-28T03:10:19;0.20;86.20
38514;DHT22;24282;48.400;10.808;2023-01-28T03:12:48;0.20;86.20
38514;DHT22;24282;48.400;10.808;2023-01-28T03:15:41;0.20;86.20
38514;DHT22;24282;48.400;10.808;2023-01-28T03:18:48;0.20;86.20
38514;DHT22;24282;48.400;10.808;2023-01-28T03:21:39;0.20;86.20
38514;DHT22;24282;48.400;10.808;2023-01-28T03:24:32;0.20;86.30
38514;DHT22;24282;48.400;10.808;2023-01-28T03:27:55;0.20;86.30
38514;DHT22;24282;48.400;10.808;2023-01-28T03:30:53;0.20;86.20
38514;DHT22;24282;48.400;10.808;2023-01-28T03:33:47;0.20;86.20
38514;DHT22;24282;48.400;10.808;2023-01-28T03:36:32;0.30;86.10
38514;DHT22;24282;48.400;10.808;2023-01-28T03:39:36;0.20;86.10
38514;DHT22;24282;48.400;10.808;2023-01-28T03:42:04;0.30;85.90
38514;DHT22;24282;48.400;10.808;2023-01-28T03:44:31;0.30;86.00
38514;DHT22;24282;48.400;10.808;2023-01-28T03:47:17;0.30;86.10
38514;DHT22;24282;48.400;10.808;2023-01-28T03:49:46;0.30;86.10
38514;DHT22;24282;48.400;10.808;2023-01-28T03:52:20;0.30;86.10
38514;DHT22;24282;48.400;10.808;2023-01-28T03:54:47;0.30;86.00
38514;DHT22;24282;48.400;10.808;2023-01-28T03:57:15;0.30;85.90
38514;DHT22;24282;48.400;10.808;2023-01-28T03:59:41;0.30;85.90
38514;DHT22;24282;48.400;10.808;2023-01-28T04:02:09;0.30;85.80
38514;DHT22;24282;48.400;10.808;2023-01-28T04:04:39;0.30;85.80
38514;DHT22;24282;48.400;10.808;2023-01-28T04:07:06;0.30;85.80
38514;DHT22;24282;48.400;10.808;2023-01-28T04:09:51;0.30;85.80
38514;DHT22;24282;48.400;10.808;2023-01-28T04:12:26;0.30;85.90
38514;DHT22;24282;48.400;10.808;2023-01-28T04:14:53;0.30;85.90
38514;DHT22;24282;48.400;10.808;2023-01-28T04:17:26;0.30;85.90
38514;DHT22;24282;48.400;10.808;2023-01-28T04:19:51;0.30;86.00
38514;DHT22;24282;48.400;10.808;2023-01-28T04:22:18;0.30;86.00
38514;DHT22;24282;48.400;10.808;2023-01-28T04:24:44;0.30;86.00
38514;DHT22;24282;48.400;10.808;2023-01-28T04:27:10;0.30;86.00
38514;DHT22;24282;48.400;10.808;2023-01-28T04:29:36;0.30;85.90
38514;DHT22;24282;48.400;10.808;2023-01-28T04:32:28;0.30;86.00
38514;DHT22;24282;48.400;10.808;2023-01-28T04:35:02;0.30;85.90
38514;DHT22;24282;48.400;10.808;2023-01-28T04:37:53;0.30;85.80
38514;DHT22;24282;48.400;10.808;2023-01-28T04:40:33;0.30;85.70
38514;DHT22;24282;48.400;10.808;2023-01-28T04:43:03;0.30;85.70
38514;DHT22;24282;48.400;10.808;2023-01-28T04:45:47;0.30;85.40
38514;DHT22;24282;48.400;10.808;2023-01-28T04:48:31;0.30;85.50
38514;DHT22;24282;48.400;10.808;2023-01-28T04:51:17;0.30;85.60
38514;DHT22;24282;48.400;10.808;2023-01-28T04:54:02;0.30;85.70
38514;DHT22;24282;48.400;10.808;2023-01-28T04:56:30;0.30;85.50
38514;DHT22;24282;48.400;10.808;2023-01-28T04:58:56;0.30;85.50
38514;DHT22;24282;48.400;10.808;2023-01-28T05:01:22;0.30;85.50
38514;DHT22;24282;48.400;10.808;2023-01-28T05:03:50;0.30;85.50
38514;DHT22;24282;48.400;10.808;2023-01-28T05:06:23;0.30;85.60
38514;DHT22;24282;48.400;10.808;2023-01-28T05:08:52;0.30;85.60
38514;DHT22;24282;48.400;10.808;2023-01-28T05:11:18;0.30;85.50
38514;DHT22;24282;48.400;10.808;2023-01-28T05:13:47;0.40;85.40
38514;DHT22;24282;48.400;10.808;2023-01-28T05:16:13;0.30;85.30
38514;DHT22;24282;48.400;10.808;2023-01-28T05:18:39;0.40;85.40
38514;DHT22;24282;48.400;10.808;2023-01-28T05:21:13;0.40;85.20
38514;DHT22;24282;48.400;10.808;2023-01-28T05:23:39;0.40;85.00
38514;DHT22;24282;48.400;10.808;2023-01-28T05:26:05;0.30;85.00
38514;DHT22;24282;48.400;10.808;2023-01-28T05:28:31;0.40;85.20
38514;DHT22;24282;48.400;10.808;2023-01-28T05:31:02;0.40;85.10
38514;DHT22;24282;48.400;10.808;2023-01-28T05:33:29;0.40;85.00
38514;DHT22;24282;48.400;10.808;2023-01-28T05:35:55;0.40;85.20
38514;DHT22;24282;48.400;10.808;2023-01-28T05:38:21;0.40;85.20
38514;DHT22;24282;48.400;10.808;2023-01-28T05:40:47;0.40;85.10
38514;DHT22;24282;48.400;10.808;2023-01-28T05:43:14;0.30;85.10
38514;DHT22;24282;48.400;10.808;2023-01-28T05:45:59;0.40;85.20
38514;DHT22;24282;48.400;10.808;2023-01-28T05:48:34;0.30;85.20
38514;DHT22;24282;48.400;10.808;2023-01-28T05:51:20;0.30;85.30
38514;DHT22;24282;48.400;10.808;2023-01-28T05:53:53;0.30;85.40
38514;DHT22;24282;48.400;10.808;2023-01-28T05:56:21;0.40;85.40
38514;DHT22;24282;48.400;10.808;2023-01-28T05:58:46;0.40;85.30
38514;DHT22;24282;48.400;10.808;2023-01-28T06:01:12;0.30;85.30
38514;DHT22;24282;48.400;10.808;2023-01-28T06:03:45;0.40;85.40
38514;DHT22;24282;48.400;10.808;2023-01-28T06:06:11;0.30;85.20
38514;DHT22;24282;48.400;10.808;2023-01-28T06:08:37;0.30;85.20
38514;DHT22;24282;48.400;10.808;2023-01-28T06:11:03;0.30;85.20
38514;DHT22;24282;48.400;10.808;2023-01-28T06:13:31;0.30;85.30
38514;DHT22;24282;48.400;10.808;2023-01-28T06:16:01;0.30;85.30
38514;DHT22;24282;48.400;10.808;2023-01-28T06:18:49;0.30;85.40
38514;DHT22;24282;48.400;10.808;2023-01-28T06:21:15;0.30;85.60
38514;DHT22;24282;48.400;10.808;2023-01-28T06:23:41;0.30;85.60
38514;DHT22;24282;48.400;10.808;2023-01-28T06:26:07;0.30;85.50
38514;DHT22;24282;48.400;10.808;2023-01-28T06:28:37;0.30;85.30
38514;DHT22;24282;48.400;10.808;2023-01-28T06:31:03;0.40;85.20
38514;DHT22;24282;48.400;10.808;2023-01-28T06:33:29;0.40;85.10
38514;DHT22;24282;48.400;10.808;2023-01-28T06:35:55;0.40;85.20
38514;DHT22;24282;48.400;10.808;2023-01-28T06:38:20;0.30;85.30
38514;DHT22;24282;48.400;10.808;2023-01-28T06:40:53;0.30;85.40
38514;DHT22;24282;48.400;10.808;2023-01-28T06:43:21;0.30;85.50
38514;DHT22;24282;48.400;10.808;2023-01-28T06:45:56;0.30;85.60
38514;DHT22;24282;48.400;10.808;2023-01-28T06:48:22;0.40;85.60
38514;DHT22;24282;48.400;10.808;2023-01-28T06:50:48;0.30;85.60
38514;DHT22;24282;48.400;10.808;2023-01-28T06:53:15;0.30;85.70
38514;DHT22;24282;48.400;10.808;2023-01-28T06:55:41;0.40;85.80
38514;DHT22;24282;48.400;10.808;2023-01-28T06:58:06;0.30;85.70
38514;DHT22;24282;48.400;10.808;2023-01-28T07:00:32;0.40;85.60
38514;DHT22;24282;48.400;10.808;2023-01-28T07:02:58;0.40;85.60
38514;DHT22;24282;48.400;10.808;2023-01-28T07:05:24;0.40;85.50
38514;DHT22;24282;48.400;10.808;2023-01-28T07:07:50;0.40;85.40
38514;DHT22;24282;48.400;10.808;2023-01-28T07:10:16;0.40;85.30
38514;DHT22;24282;48.400;10.808;2023-01-28T07:12:42;0.40;85.40
38514;DHT22;24282;48.400;10.808;2023-01-28T07:15:08;0.40;85.50
38514;DHT22;24282;48.400;10.808;2023-01-28T07:17:38;0.40;85.40
38514;DHT22;24282;48.400;10.808;2023-01-28T07:20:05;0.40;85.40
38514;DHT22;24282;48.400;10.808;2023-01-28T07:22:31;0.50;85.50
38514;DHT22;24282;48.400;10.808;2023-01-28T07:24:57;0.40;85.60
38514;DHT22;24282;48.400;10.808;2023-01-28T07:27:23;0.40;85.50
38514;DHT22;24282;48.400;10.808;2023-01-28T07:29:49;0.50;85.40
38514;DHT22;24282;48.400;10.808;2023-01-28T07:32:14;0.50;85.20
38514;DHT22;24282;48.400;10.808;2023-01-28T07:34:40;0.50;85.30
38514;DHT22;24282;48.400;10.808;2023-01-28T07:37:08;0.50;85.30
38514;DHT22;24282;48.400;10.808;2023-01-28T07:39:34;0.50;85.00
38514;DHT22;24282;48.400;10.808;2023-01-28T07:42:00;0.50;85.10
38514;DHT22;24282;48.400;10.808;2023-01-28T07:44:37;0.50;85.20
38514;DHT22;24282;48.400;10.808;2023-01-28T07:47:04;0.50;85.20
38514;DHT22;24282;48.400;10.808;2023-01-28T07:49:30;0.50;85.20
38514;DHT22;24282;48.400;10.808;2023-01-28T07:51:56;0.50;85.30
38514;DHT22;24282;48.400;10.808;2023-01-28T07:54:21;0.50;85.30
38514;DHT22;24282;48.400;10.808;2023-01-28T07:56:47;0.50;85.30
38514;DHT22;24282;48.400;10.808;2023-01-28T07:59:13;0.50;85.40
38514;DHT22;24282;48.400;10.808;2023-01-28T08:01:38;0.50;85.30
38514;DHT22;24282;48.400;10.808;2023-01-28T08:04:04;0.50;85.20
38514;DHT22;24282;48.400;10.808;2023-01-28T08:06:30;0.50;85.20
38514;DHT22;24282;48.400;10.808;2023-01-28T08:08:56;0.50;85.20
38514;DHT22;24282;48.400;10.808;2023-01-28T08:11:21;0.50;85.20
38514;DHT22;24282;48.400;10.808;2023-01-28T08:13:48;0.50;85.30
38514;DHT22;24282;48.400;10.808;2023-01-28T08:16:14;0.50;85.30
38514;DHT22;24282;48.400;10.808;2023-01-28T08:18:40;0.50;85.40
38514;DHT22;24282;48.400;10.808;2023-01-28T08:21:05;0.50;85.50
38514;DHT22;24282;48.400;10.808;2023-01-28T08:23:31;0.50;85.20
38514;DHT22;24282;48.400;10.808;2023-01-28T08:25:59;0.50;85.30
38514;DHT22;24282;48.400;10.808;2023-01-28T08:28:25;0.50;85.40
38514;DHT22;24282;48.400;10.808;2023-01-28T08:30:52;0.50;85.40
38514;DHT22;24282;48.400;10.808;2023-01-28T08:33:19;0.50;85.60
38514;DHT22;24282;48.400;10.808;2023-01-28T08:35:45;0.50;85.60
38514;DHT22;24282;48.400;10.808;2023-01-28T08:38:12;0.60;85.50
38514;DHT22;24282;48.400;10.808;2023-01-28T08:40:39;0.60;85.40
38514;DHT22;24282;48.400;10.808;2023-01-28T08:43:05;0.60;85.30
38514;DHT22;24282;48.400;10.808;2023-01-28T08:45:31;0.60;85.00
38514;DHT22;24282;48.400;10.808;2023-01-28T08:48:03;0.60;84.90
38514;DHT22;24282;48.400;10.808;2023-01-28T08:50:31;0.60;84.80
38514;DHT22;24282;48.400;10.808;2023-01-28T08:53:06;0.60;85.00
38514;DHT22;24282;48.400;10.808;2023-01-28T08:55:33;0.60;85.00
38514;DHT22;24282;48.400;10.808;2023-01-28T08:58:05;0.60;85.00
38514;DHT22;24282;48.400;10.808;2023-01-28T09:00:32;0.60;85.00
38514;DHT22;24282;48.400;10.808;2023-01-28T09:02:58;0.60;85.10
38514;DHT22;24282;48.400;10.808;2023-01-28T09:05:23;0.60;85.20
38514;DHT22;24282;48.400;10.808;2023-01-28T09:07:49;0.60;85.30
38514;DHT22;24282;48.400;10.808;2023-01-28T09:10:16;0.60;85.40
38514;DHT22;24282;48.400;10.808;2023-01-28T09:12:42;0.60;85.40
38514;DHT22;24282;48.400;10.808;2023-01-28T09:15:09;0.60;85.30
38514;DHT22;24282;48.400;10.808;2023-01-28T09:17:35;0.70;85.30
38514;DHT22;24282;48.400;10.808;2023-01-28T09:20:01;0.70;85.20
38514;DHT22;24282;48.400;10.808;2023-01-28T09:22:26;0.80;85.20
38514;DHT22;24282;48.400;10.808;2023-01-28T09:24:52;0.70;85.20
38514;DHT22;24282;48.400;10.808;2023-01-28T09:27:18;0.80;85.30
38514;DHT22;24282;48.400;10.808;2023-01-28T09:29:44;0.80;85.20
38514;DHT22;24282;48.400;10.808;2023-01-28T09:32:09;0.90;85.10
38514;DHT22;24282;48.400;10.808;2023-01-28T09:34:35;0.90;85.00
38514;DHT22;24282;48.400;10.808;2023-01-28T09:37:02;0.90;85.00
38514;DHT22;24282;48.400;10.808;2023-01-28T09:39:28;1.00;84.90
38514;DHT22;24282;48.400;10.808;2023-01-28T09:45:20;1.00;84.60
38514;DHT22;24282;48.400;10.808;2023-01-28T09:47:56;1.00;84.40
38514;DHT22;24282;48.400;10.808;2023-01-28T09:50:45;1.00;84.40
38514;DHT22;24282;48.400;10.808;2023-01-28T09:53:46;1.00;84.40
38514;DHT22;24282;48.400;10.808;2023-01-28T09:56:24;1.10;84.40
38514;DHT22;24282;48.400;10.808;2023-01-28T09:58:51;1.10;84.40
38514;DHT22;24282;48.400;10.808;2023-01-28T10:01:34;1.00;84.30
38514;DHT22;24282;48.400;10.808;2023-01-28T10:17:58;1.40;83.00
38514;DHT22;24282;48.400;10.808;2023-01-28T10:20:29;1.40;83.10
38514;DHT22;24282;48.400;10.808;2023-01-28T10:23:21;1.50;83.00
38514;DHT22;24282;48.400;10.808;2023-01-28T10:25:49;1.50;82.70
38514;DHT22;24282;48.400;10.808;2023-01-28T10:28:28;1.50;82.20
38514;DHT22;24282;48.400;10.808;2023-01-28T10:30:54;1.50;82.20
38514;DHT22;24282;48.400;10.808;2023-01-28T10:33:35;1.50;82.10
38514;DHT22;24282;48.400;10.808;2023-01-28T10:36:02;1.60;82.10
38514;DHT22;24282;48.400;10.808;2023-01-28T10:38:29;1.70;82.00
38514;DHT22;24282;48.400;10.808;2023-01-28T10:41:00;1.70;81.90
38514;DHT22;24282;48.400;10.808;2023-01-28T10:43:30;1.70;81.80
38514;DHT22;24282;48.400;10.808;2023-01-28T10:46:02;1.70;81.70
38514;DHT22;24282;48.400;10.808;2023-01-28T10:48:32;1.70;81.80
38514;DHT22;24282;48.400;10.808;2023-01-28T10:51:01;1.70;81.80
38514;DHT22;24282;48.400;10.808;2023-01-28T10:53:47;1.70;81.50
38514;DHT22;24282;48.400;10.808;2023-01-28T10:56:16;1.80;81.40
38514;DHT22;24282;48.400;10.808;2023-01-28T11:01:24;1.70;80.90
38514;DHT22;24282;48.400;10.808;2023-01-28T11:03:54;1.70;80.90
38514;DHT22;24282;48.400;10.808;2023-01-28T11:06:29;1.70;81.20
38514;DHT22;24282;48.400;10.808;2023-01-28T11:08:56;1.70;81.20
38514;DHT22;24282;48.400;10.808;2023-01-28T11:11:27;1.70;81.40
38514;DHT22;24282;48.400;10.808;2023-01-28T11:13:54;1.70;81.00
38514;DHT22;24282;48.400;10.808;2023-01-28T11:16:23;1.70;81.00
38514;DHT22;24282;48.400;10.808;2023-01-28T11:18:54;1.70;81.10
38514;DHT22;24282;48.400;10.808;2023-01-28T11:21:24;1.80;81.10
38514;DHT22;24282;48.400;10.808;2023-01-28T11:23:57;1.80;80.80
38514;DHT22;24282;48.400;10.808;2023-01-28T11:26:24;1.90;80.70
38514;DHT22;24282;48.400;10.808;2023-01-28T11:28:52;1.90;80.70
38514;DHT22;24282;48.400;10.808;2023-01-28T11:31:19;2.00;80.40
38514;DHT22;24282;48.400;10.808;2023-01-28T11:33:55;2.10;80.10
38514;DHT22;24282;48.400;10.808;2023-01-28T11:36:25;2.10;79.70
38514;DHT22;24282;48.400;10.808;2023-01-28T11:39:02;2.10;79.30
38514;DHT22;24282;48.400;10.808;2023-01-28T11:41:37;2.00;79.40
38514;DHT22;24282;48.400;10.808;2023-01-28T11:44:25;2.00;79.30
38514;DHT22;24282;48.400;10.808;2023-01-28T11:47:06;1.90;79.60
38514;DHT22;24282;48.400;10.808;2023-01-28T12:04:24;1.90;80.30
38514;DHT22;24282;48.400;10.808;2023-01-28T12:20:32;2.00;80.00
38514;DHT22;24282;48.400;10.808;2023-01-28T12:23:18;1.90;79.80
38514;DHT22;24282;48.400;10.808;2023-01-28T12:28:47;1.90;80.00
38514;DHT22;24282;48.400;10.808;2023-01-28T12:39:47;2.00;79.80
38514;DHT22;24282;48.400;10.808;2023-01-28T12:45:18;2.00;79.70
38514;DHT22;24282;48.400;10.808;2023-01-28T12:48:13;2.00;79.40
38514;DHT22;24282;48.400;10.808;2023-01-28T12:50:51;2.00;79.80
38514;DHT22;24282;48.400;10.808;2023-01-28T12:58:50;2.00;79.20
38514;DHT22;24282;48.400;10.808;2023-01-28T13:01:23;2.00;79.50
38514;DHT22;24282;48.400;10.808;2023-01-28T13:03:52;2.00;79.80
38514;DHT22;24282;48.400;10.808;2023-01-28T13:06:30;2.00;79.60
38514;DHT22;24282;48.400;10.808;2023-01-28T13:09:19;2.00;79.50
38514;DHT22;24282;48.400;10.808;2023-01-28T13:11:48;2.00;79.10
38514;DHT22;24282;48.400;10.808;2023-01-28T13:14:14;2.00;79.20
38514;DHT22;24282;48.400;10.808;2023-01-28T13:16:40;2.00;79.50
38514;DHT22;24282;48.400;10.808;2023-01-28T13:21:45;2.10;81.60
38514;DHT22;24282;48.400;10.808;2023-01-28T13:31:52;2.50;77.50
38514;DHT22;24282;48.400;10.808;2023-01-28T13:34:40;2.50;77.40
38514;DHT22;24282;48.400;10.808;2023-01-28T13:42:39;2.30;78.20
38514;DHT22;24282;48.400;10.808;2023-01-28T13:47:44;2.20;78.70
38514;DHT22;24282;48.400;10.808;2023-01-28T13:50:24;2.10;79.20
38514;DHT22;24282;48.400;10.808;2023-01-28T13:52:57;2.10;79.80
38514;DHT22;24282;48.400;10.808;2023-01-28T13:55:33;2.10;80.10
38514;DHT22;24282;48.400;10.808;2023-01-28T13:58:30;2.10;80.40
38514;DHT22;24282;48.400;10.808;2023-01-28T14:16:06;2.00;80.40
38514;DHT22;24282;48.400;10.808;2023-01-28T14:18:39;2.00;80.50
38514;DHT22;24282;48.400;10.808;2023-01-28T14:21:17;2.00;80.70
38514;DHT22;24282;48.400;10.808;2023-01-28T14:23:50;2.00;80.60
38514;DHT22;24282;48.400;10.808;2023-01-28T14:29:27;1.90;80.80
38514;DHT22;24282;48.400;10.808;2023-01-28T14:31:54;1.80;81.00
38514;DHT22;24282;48.400;10.808;2023-01-28T14:34:31;1.80;81.30
38514;DHT22;24282;48.400;10.808;2023-01-28T14:37:21;1.80;81.70
38514;DHT22;24282;48.400;10.808;2023-01-28T14:40:07;1.80;81.90
38514;DHT22;24282;48.400;10.808;2023-01-28T14:42:40;1.80;82.20
38514;DHT22;24282;48.400;10.808;2023-01-28T14:59:03;1.70;82.60
38514;DHT22;24282;48.400;10.808;2023-01-28T15:01:34;1.70;82.70
38514;DHT22;24282;48.400;10.808;2023-01-28T15:04:00;1.60;82.60
38514;DHT22;24282;48.400;10.808;2023-01-28T15:06:33;1.70;82.40
38514;DHT22;24282;48.400;10.808;2023-01-28T15:09:12;1.60;82.40
38514;DHT22;24282;48.400;10.808;2023-01-28T15:11:42;1.60;82.80
38514;DHT22;24282;48.400;10.808;2023-01-28T15:14:26;1.70;83.00
38514;DHT22;24282;48.400;10.808;2023-01-28T15:16:56;1.70;82.80
38514;DHT22;24282;48.400;10.808;2023-01-28T15:19:34;1.70;82.50
38514;DHT22;24282;48.400;10.808;2023-01-28T15:22:02;1.60;82.40
38514;DHT22;24282;48.400;10.808;2023-01-28T15:24:33;1.60;82.60
38514;DHT22;24282;48.400;10.808;2023-01-28T15:27:00;1.60;82.70
38514;DHT22;24282;48.400;10.808;2023-01-28T15:29:35;1.60;82.90
38514;DHT22;24282;48.400;10.808;2023-01-28T15:32:01;1.60;82.90
38514;DHT22;24282;48.400;10.808;2023-01-28T15:34:28;1.50;82.90
38514;DHT22;24282;48.400;10.808;2023-01-28T15:36:58;1.50;82.90
38514;DHT22;24282;48.400;10.808;2023-01-28T15:39:26;1.50;83.10
38514;DHT22;24282;48.400;10.808;2023-01-28T15:42:02;1.50;83.30
38514;DHT22;24282;48.400;10.808;2023-01-28T15:44:34;1.50;83.40
38514;DHT22;24282;48.400;10.808;2023-01-28T15:47:02;1.50;83.30
38514;DHT22;24282;48.400;10.808;2023-01-28T15:49:36;1.50;83.30
38514;DHT22;24282;48.400;10.808;2023-01-28T15:52:06;1.50;83.20
38514;DHT22;24282;48.400;10.808;2023-01-28T15:54:41;1.50;83.30
38514;DHT22;24282;48.400;10.808;2023-01-28T15:57:19;1.50;83.60
38514;DHT22;24282;48.400;10.808;2023-01-28T15:59:45;1.50;83.60
38514;DHT22;24282;48.400;10.808;2023-01-28T16:02:20;1.50;83.60
38514;DHT22;24282;48.400;10.808;2023-01-28T16:05:01;1.50;83.80
38514;DHT22;24282;48.400;10.808;2023-01-28T16:07:29;1.50;83.80
38514;DHT22;24282;48.400;10.808;2023-01-28T16:09:58;1.50;83.90
38514;DHT22;24282;48.400;10.808;2023-01-28T16:12:24;1.50;83.90
38514;DHT22;24282;48.400;10.808;2023-01-28T16:14:59;1.50;83.80
38514;DHT22;24282;48.400;10.808;2023-01-28T16:17:36;1.50;83.90
38514;DHT22;24282;48.400;10.808;2023-01-28T16:20:05;1.50;84.20
38514;DHT22;24282;48.400;10.808;2023-01-28T16:22:37;1.50;84.30
38514;DHT22;24282;48.400;10.808;2023-01-28T16:27:55;1.50;84.50
38514;DHT22;24282;48.400;10.808;2023-01-28T16:30:21;1.40;84.70
38514;DHT22;24282;48.400;10.808;2023-01-28T16:32:46;1.40;84.90
38514;DHT22;24282;48.400;10.808;2023-01-28T16:35:15;1.40;85.10
38514;DHT22;24282;48.400;10.808;2023-01-28T16:37:43;1.40;85.30
38514;DHT22;24282;48.400;10.808;2023-01-28T16:40:11;1.40;85.50
38514;DHT22;24282;48.400;10.808;2023-01-28T16:42:37;1.30;85.70
38514;DHT22;24282;48.400;10.808;2023-01-28T16:45:02;1.30;86.00
38514;DHT22;24282;48.400;10.808;2023-01-28T16:47:29;1.30;86.00
38514;DHT22;24282;48.400;10.808;2023-01-28T16:49:54;1.30;86.20
38514;DHT22;24282;48.400;10.808;2023-01-28T16:52:20;1.30;86.40
38514;DHT22;24282;48.400;10.808;2023-01-28T16:54:46;1.30;86.50
38514;DHT22;24282;48.400;10.808;2023-01-28T16:57:14;1.30;86.70
38514;DHT22;24282;48.400;10.808;2023-01-28T16:59:41;1.30;86.80
38514;DHT22;24282;48.400;10.808;2023-01-28T17:02:13;1.30;86.90
38514;DHT22;24282;48.400;10.808;2023-01-28T17:04:39;1.30;87.10
38514;DHT22;24282;48.400;10.808;2023-01-28T17:07:06;1.30;87.10
38514;DHT22;24282;48.400;10.808;2023-01-28T17:09:32;1.30;87.20
38514;DHT22;24282;48.400;10.808;2023-01-28T17:11:57;1.30;87.20
38514;DHT22;24282;48.400;10.808;2023-01-28T17:14:23;1.30;87.20
38514;DHT22;24282;48.400;10.808;2023-01-28T17:16:49;1.30;87.30
38514;DHT22;24282;48.400;10.808;2023-01-28T17:19:15;1.30;87.30
38514;DHT22;24282;48.400;10.808;2023-01-28T17:21:41;1.30;87.40
38514;DHT22;24282;48.400;10.808;2023-01-28T17:24:07;1.30;87.40
38514;DHT22;24282;48.400;10.808;2023-01-28T17:26:33;1.30;87.40
38514;DHT22;24282;48.400;10.808;2023-01-28T17:29:02;1.30;87.40
38514;DHT22;24282;48.400;10.808;2023-01-28T17:31:28;1.30;87.40
38514;DHT22;24282;48.400;10.808;2023-01-28T17:33:56;1.30;87.50
38514;DHT22;24282;48.400;10.808;2023-01-28T17:36:23;1.30;87.60
38514;DHT22;24282;48.400;10.808;2023-01-28T17:38:49;1.30;87.70
38514;DHT22;24282;48.400;10.808;2023-01-28T17:41:15;1.20;87.70
38514;DHT22;24282;48.400;10.808;2023-01-28T17:43:49;1.20;87.80
38514;DHT22;24282;48.400;10.808;2023-01-28T17:46:16;1.20;87.80
38514;DHT22;24282;48.400;10.808;2023-01-28T17:48:43;1.30;87.80
38514;DHT22;24282;48.400;10.808;2023-01-28T17:51:11;1.30;87.90
38514;DHT22;24282;48.400;10.808;2023-01-28T17:53:37;1.30;87.90
38514;DHT22;24282;48.400;10.808;2023-01-28T17:56:03;1.30;87.90
38514;DHT22;24282;48.400;10.808;2023-01-28T17:58:29;1.30;87.90
38514;DHT22;24282;48.400;10.808;2023-01-28T18:00:54;1.30;88.00
38514;DHT22;24282;48.400;10.808;2023-01-28T18:03:20;1.20;88.00
38514;DHT22;24282;48.400;10.808;2023-01-28T18:05:55;1.30;88.00
38514;DHT22;24282;48.400;10.808;2023-01-28T18:08:21;1.30;88.10
38514;DHT22;24282;48.400;10.808;2023-01-28T18:10:47;1.30;88.20
38514;DHT22;24282;48.400;10.808;2023-01-28T18:13:13;1.30;88.20